Time;durP1;ratioP1;P1;durP2;ratioP2;P2;SDS_P1;SDS_P2;PMS_P1;PMS_P2;Temp;Humidity;BMP_temperature;BMP_pressure;BME280_temperature;BME280_humidity;BME280_pressure;Samples;Min_cycle;Max_cycle;Signal;HPM_P1;HPM_P2
2023/06/05 00:00:31;;;;;;;18.87;9.20;;;;;;;;;;5087235;28;20386;-68
2023/06/05 00:02:56;;;;;;;19.70;9.23;;;;;;;;;;5090765;28;20016;-68
2023/06/05 00:05:25;;;;;;;19.33;9.23;;;;;;;;;;5094946;28;20113;-68
2023/06/05 00:07:51;;;;;;;21.33;9.53;;;;;;;;;;5094764;28;20035;-67
2023/06/05 00:10:16;;;;;;;25.53;9.37;;;;;;;;;;5092087;28;20020;-68
2023/06/05 00:12:41;;;;;;;21.87;9.60;;;;;;;;;;5092366;28;20024;-68
2023/06/05 00:15:07;;;;;;;22.37;9.80;;;;;;;;;;5091797;28;20042;-68
2023/06/05 00:17:32;;;;;;;18.63;9.50;;;;;;;;;;5091611;28;20084;-68
2023/06/05 00:20:00;;;;;;;23.00;10.13;;;;;;;;;;5095373;28;20023;-68
2023/06/05 00:22:26;;;;;;;22.50;10.00;;;;;;;;;;5096344;28;20078;-68
2023/06/05 00:24:52;;;;;;;23.80;9.90;;;;;;;;;;5087374;28;20089;-68
2023/06/05 00:27:17;;;;;;;21.70;10.67;;;;;;;;;;5090198;28;20028;-67
2023/06/05 00:29:43;;;;;;;22.37;10.57;;;;;;;;;;5094715;28;20077;-68
2023/06/05 00:32:08;;;;;;;21.87;10.00;;;;;;;;;;5092153;28;20410;-68
2023/06/05 00:34:33;;;;;;;31.10;10.40;;;;;;;;;;5093450;28;20055;-68
2023/06/05 00:36:59;;;;;;;20.87;9.70;;;;;;;;;;5094104;28;20027;-67
2023/06/05 00:39:24;;;;;;;22.10;10.07;;;;;;;;;;5094302;28;20047;-68
2023/06/05 00:41:50;;;;;;;23.53;10.37;;;;;;;;;;5095802;28;20020;-68
2023/06/05 00:44:17;;;;;;;24.83;11.00;;;;;;;;;;5093655;28;20491;-68
2023/06/05 00:46:43;;;;;;;22.57;10.30;;;;;;;;;;5091253;28;20031;-67
2023/06/05 00:49:08;;;;;;;23.20;11.10;;;;;;;;;;5090366;28;20012;-68
2023/06/05 00:51:35;;;;;;;26.20;11.23;;;;;;;;;;5094123;28;20022;-68
2023/06/05 00:54:00;;;;;;;28.50;11.97;;;;;;;;;;5098821;28;20030;-68
2023/06/05 00:56:26;;;;;;;23.27;11.37;;;;;;;;;;5095847;28;20016;-68
2023/06/05 00:58:52;;;;;;;26.93;11.47;;;;;;;;;;5092284;28;20028;-68
2023/06/05 01:04:23;;;;;;;31.37;11.63;;;;;;;;;;5114187;22;20062;-68
2023/06/05 01:06:50;;;;;;;29.20;12.27;;;;;;;;;;5089624;28;20602;-67
2023/06/05 01:09:16;;;;;;;31.13;12.60;;;;;;;;;;5091583;28;20019;-68
2023/06/05 01:12:01;;;;;;;32.23;11.80;;;;;;;;;;5093725;28;20034;-68
2023/06/05 01:14:32;;;;;;;31.47;12.03;;;;;;;;;;5069789;28;20124;-70
2023/06/05 01:17:00;;;;;;;29.75;12.88;;;;;;;;;;5086194;28;20098;-68
2023/06/05 01:19:28;;;;;;;26.97;11.90;;;;;;;;;;5090008;28;20036;-67
2023/06/05 01:21:55;;;;;;;26.57;11.90;;;;;;;;;;5092875;28;20461;-68
2023/06/05 01:24:22;;;;;;;31.20;12.40;;;;;;;;;;5088463;28;20017;-67
2023/06/05 01:27:07;;;;;;;27.63;11.50;;;;;;;;;;5090616;28;20023;-67
2023/06/05 01:30:13;;;;;;;30.33;12.83;;;;;;;;;;5088882;28;20023;-67
2023/06/05 01:33:02;;;;;;;28.13;11.63;;;;;;;;;;5031365;28;20025;-69
2023/06/05 01:35:27;;;;;;;32.00;12.33;;;;;;;;;;5029953;28;20037;-67
2023/06/05 01:37:54;;;;;;;34.10;13.40;;;;;;;;;;5031187;28;20450;-68
2023/06/05 01:40:21;;;;;;;35.80;13.03;;;;;;;;;;5029216;28;20047;-68
2023/06/05 01:42:47;;;;;;;32.13;12.57;;;;;;;;;;5027786;28;20176;-68
2023/06/05 01:45:13;;;;;;;34.53;12.97;;;;;;;;;;5029611;28;20034;-68
2023/06/05 01:47:39;;;;;;;30.67;12.47;;;;;;;;;;5029542;28;20017;-69
2023/06/05 01:50:07;;;;;;;35.53;13.03;;;;;;;;;;5030803;28;20040;-68
2023/06/05 01:52:34;;;;;;;33.90;12.60;;;;;;;;;;5030357;28;20151;-70
2023/06/05 01:54:59;;;;;;;30.37;12.07;;;;;;;;;;5030232;28;20029;-69
2023/06/05 01:57:28;;;;;;;34.23;13.20;;;;;;;;;;5031467;28;20038;-69
2023/06/05 01:59:54;;;;;;;31.90;12.80;;;;;;;;;;5030241;28;20053;-69
2023/06/05 02:02:21;;;;;;;33.43;12.53;;;;;;;;;;5015981;28;20030;-68
2023/06/05 02:04:47;;;;;;;29.90;12.13;;;;;;;;;;5090141;28;20044;-68
2023/06/05 02:07:12;;;;;;;37.20;12.27;;;;;;;;;;5089967;28;20350;-68
2023/06/05 02:09:38;;;;;;;32.43;13.00;;;;;;;;;;5091195;28;20073;-68
2023/06/05 02:12:03;;;;;;;31.13;12.27;;;;;;;;;;5083929;28;20040;-68
2023/06/05 02:14:29;;;;;;;31.67;12.23;;;;;;;;;;5090493;28;20016;-68
2023/06/05 02:16:54;;;;;;;32.83;12.80;;;;;;;;;;5086501;28;20753;-68
2023/06/05 02:19:19;;;;;;;32.83;12.73;;;;;;;;;;5091303;28;20032;-68
2023/06/05 02:21:45;;;;;;;34.83;12.43;;;;;;;;;;5089590;28;20469;-68
2023/06/05 02:24:10;;;;;;;33.57;12.73;;;;;;;;;;5084919;28;20051;-75
2023/06/05 02:26:35;;;;;;;38.33;13.27;;;;;;;;;;5091286;28;20111;-68
2023/06/05 02:29:00;;;;;;;34.47;12.90;;;;;;;;;;5090650;28;20095;-69
2023/06/05 02:31:28;;;;;;;32.37;12.27;;;;;;;;;;5089846;28;20035;-69
2023/06/05 02:33:55;;;;;;;30.93;12.43;;;;;;;;;;5078258;28;20066;-68
2023/06/05 02:36:20;;;;;;;35.53;12.67;;;;;;;;;;5086923;28;20035;-68
2023/06/05 02:38:46;;;;;;;32.43;12.20;;;;;;;;;;5092165;28;20020;-68
2023/06/05 02:41:11;;;;;;;34.40;12.30;;;;;;;;;;5090472;28;20458;-69
2023/06/05 02:43:36;;;;;;;32.47;13.17;;;;;;;;;;5092430;28;20024;-68
2023/06/05 02:46:02;;;;;;;36.33;13.03;;;;;;;;;;5088432;28;21748;-68
2023/06/05 02:48:27;;;;;;;34.80;12.80;;;;;;;;;;5087998;28;20422;-69
2023/06/05 02:50:52;;;;;;;32.57;12.30;;;;;;;;;;5088891;28;20028;-82
2023/06/05 02:53:18;;;;;;;37.00;12.00;;;;;;;;;;5085292;28;20069;-80
2023/06/05 02:55:43;;;;;;;32.33;12.33;;;;;;;;;;5092133;28;20376;-80
2023/06/05 02:58:08;;;;;;;36.70;13.17;;;;;;;;;;5093122;28;20027;-78
2023/06/05 03:00:34;;;;;;;40.23;12.63;;;;;;;;;;5087070;28;20101;-81
2023/06/05 03:03:00;;;;;;;40.50;13.33;;;;;;;;;;5089891;28;20020;-81
2023/06/05 03:05:26;;;;;;;40.53;13.40;;;;;;;;;;5086813;28;20032;-81
2023/06/05 03:07:53;;;;;;;36.40;13.13;;;;;;;;;;5086417;28;20501;-79
2023/06/05 03:10:19;;;;;;;37.40;13.13;;;;;;;;;;5092963;28;20400;-80
2023/06/05 03:12:44;;;;;;;36.53;13.23;;;;;;;;;;5086638;28;20035;-81
2023/06/05 03:15:11;;;;;;;34.27;12.90;;;;;;;;;;5091200;28;20032;-79
2023/06/05 03:17:36;;;;;;;35.20;12.83;;;;;;;;;;5089760;28;20035;-81
2023/06/05 03:20:02;;;;;;;37.33;13.40;;;;;;;;;;5088910;28;20028;-77
2023/06/05 03:22:27;;;;;;;35.00;13.33;;;;;;;;;;5086287;28;20465;-80
2023/06/05 03:24:52;;;;;;;37.73;13.17;;;;;;;;;;5088977;28;20493;-79
2023/06/05 03:27:18;;;;;;;34.30;12.47;;;;;;;;;;5088703;28;20444;-80
2023/06/05 03:29:43;;;;;;;43.40;13.97;;;;;;;;;;5093733;28;20016;-82
2023/06/05 03:32:08;;;;;;;32.43;12.27;;;;;;;;;;5089467;28;20047;-81
2023/06/05 03:34:36;;;;;;;39.37;13.57;;;;;;;;;;5091213;28;20020;-80
2023/06/05 03:37:02;;;;;;;28.07;12.20;;;;;;;;;;5088640;28;20487;-80
2023/06/05 03:39:27;;;;;;;37.37;12.80;;;;;;;;;;5090156;28;20056;-81
2023/06/05 03:41:52;;;;;;;33.93;12.53;;;;;;;;;;5088908;28;20027;-77
2023/06/05 03:44:18;;;;;;;29.43;11.60;;;;;;;;;;5091071;28;20028;-81
2023/06/05 03:46:44;;;;;;;30.10;12.10;;;;;;;;;;5086298;28;20020;-78
2023/06/05 03:49:10;;;;;;;27.93;11.80;;;;;;;;;;5089968;28;20020;-79
2023/06/05 03:51:35;;;;;;;24.80;10.97;;;;;;;;;;5090015;28;20495;-81
2023/06/05 03:54:01;;;;;;;24.60;10.70;;;;;;;;;;5086287;28;20039;-81
2023/06/05 03:56:42;;;;;;;24.37;10.70;;;;;;;;;;5089751;28;20031;-79
2023/06/05 03:59:18;;;;;;;23.90;10.17;;;;;;;;;;5092650;28;20497;-80
2023/06/05 04:01:44;;;;;;;25.57;10.50;;;;;;;;;;5087242;28;20016;-79
2023/06/05 04:04:09;;;;;;;23.77;9.97;;;;;;;;;;5089182;28;20087;-79
2023/06/05 04:06:36;;;;;;;20.80;9.57;;;;;;;;;;5092534;28;20091;-77
2023/06/05 04:09:02;;;;;;;21.73;9.60;;;;;;;;;;5089279;28;20012;-74
2023/06/05 04:11:28;;;;;;;17.97;9.33;;;;;;;;;;5091025;28;20063;-75
2023/06/05 04:13:53;;;;;;;17.83;8.97;;;;;;;;;;5082813;28;20057;-73
2023/06/05 04:16:19;;;;;;;17.63;8.40;;;;;;;;;;5085486;28;20017;-73
2023/06/05 04:18:44;;;;;;;16.03;8.23;;;;;;;;;;5085408;28;20450;-73
2023/06/05 04:21:09;;;;;;;19.27;7.87;;;;;;;;;;5086642;28;20020;-74
2023/06/05 04:23:35;;;;;;;15.13;7.77;;;;;;;;;;5084088;28;20069;-74
2023/06/05 04:26:01;;;;;;;18.50;7.27;;;;;;;;;;5087341;28;20012;-75
2023/06/05 04:28:26;;;;;;;14.53;7.10;;;;;;;;;;5087084;28;20035;-76
2023/06/05 04:30:51;;;;;;;13.03;6.77;;;;;;;;;;5091754;28;20027;-73
2023/06/05 04:33:17;;;;;;;15.53;6.60;;;;;;;;;;5088038;28;20098;-74
2023/06/05 04:35:42;;;;;;;13.00;6.10;;;;;;;;;;5088926;28;20386;-72
2023/06/05 04:38:08;;;;;;;12.23;6.53;;;;;;;;;;5089322;28;20443;-72
2023/06/05 04:40:33;;;;;;;13.63;5.93;;;;;;;;;;5084209;28;20402;-73
2023/06/05 04:42:58;;;;;;;12.67;6.30;;;;;;;;;;5087600;28;20073;-72
2023/06/05 04:45:24;;;;;;;18.63;8.03;;;;;;;;;;5087550;28;20047;-70
2023/06/05 04:47:49;;;;;;;13.30;5.67;;;;;;;;;;5090141;28;20031;-72
2023/06/05 04:50:22;;;;;;;12.50;5.63;;;;;;;;;;5087118;28;20032;-70
2023/06/05 04:52:47;;;;;;;12.20;5.93;;;;;;;;;;5086335;28;20496;-70
2023/06/05 04:55:13;;;;;;;11.37;5.47;;;;;;;;;;5085700;28;20012;-70
2023/06/05 04:57:38;;;;;;;9.63;5.07;;;;;;;;;;5087131;28;21014;-71
2023/06/05 05:00:04;;;;;;;9.18;5.03;;;;;;;;;;5089115;28;20024;-69
2023/06/05 05:02:29;;;;;;;11.18;5.07;;;;;;;;;;5090070;28;20047;-69
2023/06/05 05:04:55;;;;;;;8.65;4.38;;;;;;;;;;5090022;28;20038;-69
2023/06/05 05:07:22;;;;;;;13.10;4.68;;;;;;;;;;5087804;28;20389;-69
2023/06/05 05:09:47;;;;;;;11.43;4.50;;;;;;;;;;5087012;28;20112;-69
2023/06/05 05:12:12;;;;;;;12.00;5.30;;;;;;;;;;5085167;28;20443;-69
2023/06/05 05:14:40;;;;;;;12.30;5.30;;;;;;;;;;5090845;28;20024;-69
2023/06/05 05:17:05;;;;;;;9.35;4.78;;;;;;;;;;5086299;28;20386;-69
2023/06/05 05:19:31;;;;;;;12.90;4.72;;;;;;;;;;5089593;28;20081;-69
2023/06/05 05:21:57;;;;;;;11.02;4.68;;;;;;;;;;5087965;28;20099;-70
2023/06/05 05:24:23;;;;;;;9.23;4.40;;;;;;;;;;5093607;28;20051;-73
2023/06/05 05:26:49;;;;;;;12.73;4.90;;;;;;;;;;5090961;28;20020;-72
2023/06/05 05:29:14;;;;;;;11.25;4.85;;;;;;;;;;5094678;28;20031;-72
2023/06/05 05:31:39;;;;;;;10.13;4.65;;;;;;;;;;5094597;28;20024;-71
2023/06/05 05:34:05;;;;;;;9.43;4.55;;;;;;;;;;5093868;28;20023;-73
2023/06/05 05:36:30;;;;;;;11.43;4.35;;;;;;;;;;5090033;28;20529;-70
2023/06/05 05:38:55;;;;;;;11.18;4.38;;;;;;;;;;5090107;28;20026;-70
2023/06/05 05:41:21;;;;;;;13.27;4.65;;;;;;;;;;5090294;28;20028;-70
2023/06/05 05:43:46;;;;;;;11.82;4.60;;;;;;;;;;5093446;28;20024;-69
2023/06/05 05:46:11;;;;;;;8.77;4.38;;;;;;;;;;5090215;28;20019;-72
2023/06/05 05:48:37;;;;;;;8.38;4.07;;;;;;;;;;5091639;28;21361;-69
2023/06/05 05:51:03;;;;;;;7.60;3.70;;;;;;;;;;5092363;28;20449;-70
2023/06/05 05:53:28;;;;;;;13.20;4.13;;;;;;;;;;5087361;28;20125;-68
2023/06/05 05:55:53;;;;;;;7.97;3.83;;;;;;;;;;5092093;28;20470;-73
2023/06/05 05:58:19;;;;;;;9.88;4.60;;;;;;;;;;5090052;28;20032;-72
2023/06/05 06:00:44;;;;;;;10.00;4.18;;;;;;;;;;5094123;28;20012;-73
2023/06/05 06:03:09;;;;;;;10.65;4.07;;;;;;;;;;5090306;28;20016;-72
2023/06/05 06:05:35;;;;;;;9.52;3.88;;;;;;;;;;5087746;28;20032;-71
2023/06/05 06:08:01;;;;;;;8.52;3.70;;;;;;;;;;5090502;28;20023;-70
2023/06/05 06:10:27;;;;;;;9.32;3.65;;;;;;;;;;5093041;28;20028;-69
2023/06/05 06:12:53;;;;;;;7.97;3.33;;;;;;;;;;5092102;28;20016;-72
2023/06/05 06:15:18;;;;;;;9.10;3.70;;;;;;;;;;5083465;28;20101;-71
2023/06/05 06:17:43;;;;;;;10.50;4.28;;;;;;;;;;5091986;28;20031;-70
2023/06/05 06:20:12;;;;;;;8.88;4.00;;;;;;;;;;5089671;28;21275;-70
2023/06/05 06:22:37;;;;;;;8.20;3.53;;;;;;;;;;5089535;28;20043;-71
2023/06/05 06:25:03;;;;;;;6.97;3.45;;;;;;;;;;5083003;28;20032;-70
2023/06/05 06:27:29;;;;;;;8.63;3.55;;;;;;;;;;5085439;28;20024;-73
2023/06/05 06:29:54;;;;;;;10.02;3.70;;;;;;;;;;5090107;28;20016;-73
2023/06/05 06:32:20;;;;;;;10.57;3.80;;;;;;;;;;5091912;28;20101;-75
2023/06/05 06:34:45;;;;;;;12.75;4.28;;;;;;;;;;5093872;28;20051;-79
2023/06/05 06:37:16;;;;;;;10.63;4.18;;;;;;;;;;5093757;28;20035;-76
2023/06/05 06:39:42;;;;;;;12.10;4.22;;;;;;;;;;5087697;28;20504;-72
2023/06/05 06:42:11;;;;;;;10.50;4.53;;;;;;;;;;5092801;28;20111;-74
2023/06/05 06:44:36;;;;;;;13.48;4.75;;;;;;;;;;5089766;28;20020;-74
2023/06/05 06:47:02;;;;;;;10.88;4.60;;;;;;;;;;5089628;28;20032;-72
2023/06/05 06:49:27;;;;;;;9.85;3.78;;;;;;;;;;5092384;28;20522;-73
2023/06/05 06:51:52;;;;;;;9.57;4.72;;;;;;;;;;5089805;28;20561;-76
2023/06/05 06:54:18;;;;;;;20.05;4.72;;;;;;;;;;5091654;28;20031;-73
2023/06/05 06:56:44;;;;;;;11.45;4.20;;;;;;;;;;5090069;28;20027;-73
2023/06/05 06:59:13;;;;;;;11.45;4.43;;;;;;;;;;5089959;28;20461;-76
2023/06/05 07:01:45;;;;;;;9.90;4.22;;;;;;;;;;5094019;28;20498;-77
2023/06/05 07:04:12;;;;;;;9.50;4.38;;;;;;;;;;5088574;28;20559;-75
2023/06/05 07:06:38;;;;;;;8.32;4.18;;;;;;;;;;5092323;28;20492;-77
2023/06/05 07:09:03;;;;;;;9.88;4.93;;;;;;;;;;5092307;28;20095;-75
2023/06/05 07:11:29;;;;;;;8.63;4.22;;;;;;;;;;5088964;28;20477;-77
2023/06/05 07:13:54;;;;;;;13.38;4.68;;;;;;;;;;5089633;28;20354;-72
2023/06/05 07:16:20;;;;;;;9.60;4.15;;;;;;;;;;5091906;28;20024;-73
2023/06/05 07:18:45;;;;;;;8.73;4.18;;;;;;;;;;5088158;28;20489;-76
2023/06/05 07:21:10;;;;;;;10.60;4.60;;;;;;;;;;5087420;28;20024;-75
2023/06/05 07:23:36;;;;;;;11.70;4.38;;;;;;;;;;5088620;28;20481;-76
2023/06/05 07:26:01;;;;;;;11.02;4.65;;;;;;;;;;5088554;28;20008;-73
2023/06/05 07:28:27;;;;;;;11.63;4.80;;;;;;;;;;5092297;28;20028;-73
2023/06/05 07:30:52;;;;;;;10.88;4.05;;;;;;;;;;5078382;28;20032;-74
2023/06/05 07:33:18;;;;;;;10.07;3.97;;;;;;;;;;5089249;28;20028;-74
2023/06/05 07:35:45;;;;;;;11.02;4.00;;;;;;;;;;5090793;28;20020;-76
2023/06/05 07:38:10;;;;;;;8.70;3.80;;;;;;;;;;5091681;28;20385;-76
2023/06/05 07:40:36;;;;;;;9.75;3.72;;;;;;;;;;5089624;28;20016;-73
2023/06/05 07:43:01;;;;;;;11.60;4.10;;;;;;;;;;5083839;28;20466;-71
2023/06/05 07:45:26;;;;;;;14.65;4.10;;;;;;;;;;5092504;28;20038;-71
2023/06/05 07:47:51;;;;;;;8.90;3.92;;;;;;;;;;5092291;28;20031;-71
2023/06/05 07:50:17;;;;;;;10.13;3.95;;;;;;;;;;5090585;28;20119;-74
2023/06/05 07:52:42;;;;;;;8.13;3.25;;;;;;;;;;5093478;28;20421;-73
2023/06/05 07:55:08;;;;;;;11.68;3.65;;;;;;;;;;5089782;28;20046;-73
2023/06/05 07:57:33;;;;;;;8.30;3.70;;;;;;;;;;5084685;28;20129;-76
2023/06/05 07:59:58;;;;;;;10.38;3.95;;;;;;;;;;5090686;28;21434;-73
2023/06/05 08:02:24;;;;;;;10.23;3.58;;;;;;;;;;5090934;28;20032;-73
2023/06/05 08:04:49;;;;;;;8.88;3.80;;;;;;;;;;5084487;28;20505;-73
2023/06/05 08:07:14;;;;;;;10.80;3.78;;;;;;;;;;5089286;28;20102;-72
2023/06/05 08:09:40;;;;;;;9.88;3.88;;;;;;;;;;5092347;28;20024;-72
2023/06/05 08:12:06;;;;;;;10.85;3.58;;;;;;;;;;5088233;28;20095;-74
2023/06/05 08:14:31;;;;;;;8.05;3.20;;;;;;;;;;5088496;28;20030;-74
2023/06/05 08:16:56;;;;;;;6.88;3.08;;;;;;;;;;5088056;28;20063;-73
2023/06/05 08:19:22;;;;;;;9.50;3.13;;;;;;;;;;5088615;28;20536;-74
2023/06/05 08:21:51;;;;;;;10.15;3.30;;;;;;;;;;5089378;28;20008;-76
2023/06/05 08:24:16;;;;;;;7.50;3.22;;;;;;;;;;5084961;28;20031;-74
2023/06/05 08:26:42;;;;;;;10.15;3.42;;;;;;;;;;5091137;28;20020;-74
2023/06/05 08:29:07;;;;;;;9.10;3.78;;;;;;;;;;5091571;28;20020;-72
2023/06/05 08:31:34;;;;;;;7.30;3.13;;;;;;;;;;5084222;28;20073;-71
2023/06/05 08:33:59;;;;;;;6.40;3.20;;;;;;;;;;5086119;28;20032;-74
2023/06/05 08:36:25;;;;;;;10.00;3.30;;;;;;;;;;5078309;28;20026;-74
2023/06/05 08:38:50;;;;;;;8.32;3.30;;;;;;;;;;5085146;28;20034;-73
2023/06/05 08:41:16;;;;;;;9.23;3.28;;;;;;;;;;5083578;28;20370;-74
2023/06/05 08:43:42;;;;;;;8.52;2.80;;;;;;;;;;5092963;28;20469;-73
2023/06/05 08:46:08;;;;;;;12.27;2.97;;;;;;;;;;5092405;28;20537;-71
2023/06/05 08:48:37;;;;;;;7.60;3.17;;;;;;;;;;5092017;28;20016;-72
2023/06/05 08:51:03;;;;;;;8.10;3.28;;;;;;;;;;5095137;28;20047;-73
2023/06/05 08:53:31;;;;;;;7.25;2.85;;;;;;;;;;5096327;28;20027;-72
2023/06/05 08:55:56;;;;;;;9.00;3.10;;;;;;;;;;5096605;28;20081;-74
2023/06/05 08:58:21;;;;;;;7.07;3.45;;;;;;;;;;5097214;28;20016;-72
2023/06/05 09:00:48;;;;;;;8.93;3.40;;;;;;;;;;5096145;28;20027;-74
2023/06/05 09:03:15;;;;;;;9.50;3.50;;;;;;;;;;5096002;28;20091;-73
2023/06/05 09:05:40;;;;;;;7.47;3.33;;;;;;;;;;5095858;28;20031;-72
2023/06/05 09:08:06;;;;;;;10.15;3.35;;;;;;;;;;5096460;28;20485;-73
2023/06/05 09:10:31;;;;;;;9.07;2.88;;;;;;;;;;5096512;28;20020;-71
2023/06/05 09:12:57;;;;;;;6.22;2.80;;;;;;;;;;5095930;28;20077;-74
2023/06/05 09:15:27;;;;;;;6.60;2.70;;;;;;;;;;5095700;28;20410;-72
2023/06/05 09:18:07;;;;;;;8.65;2.90;;;;;;;;;;5096695;28;20024;-71
2023/06/05 09:20:34;;;;;;;6.97;2.63;;;;;;;;;;5091453;28;20024;-71
2023/06/05 09:23:00;;;;;;;8.60;2.60;;;;;;;;;;5094445;28;20343;-71
2023/06/05 09:25:28;;;;;;;6.93;2.67;;;;;;;;;;5094925;28;20065;-72
2023/06/05 09:28:07;;;;;;;6.53;2.55;;;;;;;;;;5095423;28;20508;-74
2023/06/05 09:30:32;;;;;;;8.57;2.78;;;;;;;;;;5092859;28;20112;-72
2023/06/05 09:33:07;;;;;;;5.95;2.60;;;;;;;;;;5095115;28;20092;-73
2023/06/05 09:35:33;;;;;;;6.22;2.78;;;;;;;;;;5095192;28;20024;-72
2023/06/05 09:37:58;;;;;;;8.32;2.80;;;;;;;;;;5095552;28;20019;-71
2023/06/05 09:40:36;;;;;;;6.47;2.35;;;;;;;;;;5095053;28;20016;-73
2023/06/05 09:43:01;;;;;;;6.00;2.60;;;;;;;;;;5094904;28;20019;-71
2023/06/05 09:45:40;;;;;;;6.93;2.25;;;;;;;;;;5095086;28;20452;-72
2023/06/05 09:48:15;;;;;;;5.65;2.58;;;;;;;;;;5094908;28;20026;-72
2023/06/05 09:50:41;;;;;;;7.05;2.65;;;;;;;;;;5094404;28;20031;-71
2023/06/05 09:53:08;;;;;;;9.10;2.38;;;;;;;;;;5094841;28;20027;-74
2023/06/05 09:55:34;;;;;;;7.72;2.30;;;;;;;;;;5092008;28;20027;-74
2023/06/05 09:58:09;;;;;;;8.40;2.42;;;;;;;;;;5094259;28;20024;-74
2023/06/05 10:00:36;;;;;;;6.57;2.53;;;;;;;;;;5091441;28;20055;-74
2023/06/05 10:03:04;;;;;;;9.43;2.50;;;;;;;;;;5091117;28;20008;-72
2023/06/05 10:05:29;;;;;;;4.95;2.00;;;;;;;;;;5090764;28;20167;-75
2023/06/05 10:07:56;;;;;;;6.43;2.78;;;;;;;;;;5095127;28;20099;-75
2023/06/05 10:10:22;;;;;;;4.55;2.22;;;;;;;;;;5095016;28;20022;-75
2023/06/05 10:12:47;;;;;;;7.72;2.22;;;;;;;;;;5089256;28;20489;-75
2023/06/05 10:15:13;;;;;;;6.72;2.38;;;;;;;;;;5094639;28;20020;-75
2023/06/05 10:17:39;;;;;;;7.18;2.30;;;;;;;;;;5094410;28;20470;-74
2023/06/05 10:20:06;;;;;;;7.05;2.80;;;;;;;;;;5094448;28;20020;-75
2023/06/05 10:22:33;;;;;;;6.65;2.72;;;;;;;;;;5090343;28;20414;-76
2023/06/05 10:25:01;;;;;;;6.50;2.72;;;;;;;;;;5094515;28;20027;-76
2023/06/05 10:27:45;;;;;;;9.27;2.70;;;;;;;;;;5094100;28;20078;-75
2023/06/05 10:30:30;;;;;;;7.20;2.40;;;;;;;;;;5091127;28;20027;-75
2023/06/05 10:33:04;;;;;;;5.10;2.10;;;;;;;;;;5014872;28;20036;-73
2023/06/05 10:35:41;;;;;;;7.30;2.30;;;;;;;;;;5031628;28;20045;-73
2023/06/05 10:38:19;;;;;;;5.97;2.00;;;;;;;;;;5031613;28;20029;-76
2023/06/05 10:40:45;;;;;;;7.07;2.00;;;;;;;;;;5031872;28;20476;-75
2023/06/05 10:43:25;;;;;;;5.63;2.00;;;;;;;;;;5029550;28;20531;-74
2023/06/05 10:45:51;;;;;;;6.90;2.05;;;;;;;;;;5031705;28;20083;-76
2023/06/05 10:48:17;;;;;;;6.30;2.17;;;;;;;;;;5031420;28;20061;-75
2023/06/05 10:50:43;;;;;;;5.97;2.00;;;;;;;;;;5031947;28;20018;-75
2023/06/05 10:53:28;;;;;;;6.15;2.30;;;;;;;;;;5031218;28;20021;-78
2023/06/05 10:55:53;;;;;;;7.88;2.10;;;;;;;;;;5031460;28;20026;-75
2023/06/05 10:58:22;;;;;;;7.07;2.13;;;;;;;;;;5031882;28;20021;-75
2023/06/05 11:01:06;;;;;;;7.38;2.17;;;;;;;;;;5031673;28;20017;-77
2023/06/05 11:03:50;;;;;;;8.48;2.00;;;;;;;;;;5014294;28;20052;-77
2023/06/05 11:06:16;;;;;;;7.53;2.08;;;;;;;;;;5030804;28;20049;-76
2023/06/05 11:08:41;;;;;;;11.68;2.25;;;;;;;;;;5058613;28;20067;-76
2023/06/05 11:11:09;;;;;;;4.50;1.90;;;;;;;;;;5073054;28;20047;-78
2023/06/05 11:13:54;;;;;;;4.70;1.73;;;;;;;;;;5085976;28;20020;-76
2023/06/05 11:16:26;;;;;;;5.03;2.00;;;;;;;;;;5086053;28;20024;-78
2023/06/05 11:18:51;;;;;;;6.10;1.70;;;;;;;;;;5092393;28;20380;-78
2023/06/05 11:21:16;;;;;;;10.13;2.00;;;;;;;;;;5089941;28;20032;-77
2023/06/05 11:24:02;;;;;;;9.60;2.60;;;;;;;;;;5092108;28;20061;-77
2023/06/05 11:26:40;;;;;;;7.30;1.70;;;;;;;;;;5082322;28;20050;-79
2023/06/05 11:29:10;;;;;;;5.60;2.00;;;;;;;;;;5085546;28;20025;-79
2023/06/05 11:31:36;;;;;;;9.48;1.83;;;;;;;;;;5092052;28;20043;-81
2023/06/05 11:34:11;;;;;;;7.38;1.90;;;;;;;;;;5098339;28;20021;-72
2023/06/05 11:36:36;;;;;;;4.60;1.65;;;;;;;;;;5093912;28;20131;-79
2023/06/05 11:39:01;;;;;;;6.88;1.67;;;;;;;;;;5089785;28;20050;-79
2023/06/05 11:41:27;;;;;;;6.80;1.73;;;;;;;;;;5090825;28;20027;-79
2023/06/05 11:43:52;;;;;;;4.47;1.52;;;;;;;;;;5093550;28;20458;-77
2023/06/05 11:46:18;;;;;;;4.38;1.45;;;;;;;;;;5088802;28;20097;-77
2023/06/05 11:48:44;;;;;;;7.20;1.83;;;;;;;;;;5088994;28;20031;-74
2023/06/05 11:51:10;;;;;;;6.88;1.73;;;;;;;;;;5088893;28;20389;-72
2023/06/05 11:53:37;;;;;;;4.82;1.60;;;;;;;;;;5089622;28;20038;-74
2023/06/05 11:56:12;;;;;;;5.72;1.65;;;;;;;;;;5087079;28;20422;-76
2023/06/05 11:58:38;;;;;;;6.45;1.73;;;;;;;;;;5087701;28;20039;-77
2023/06/05 12:01:17;;;;;;;7.22;1.60;;;;;;;;;;5085555;28;20482;-79
2023/06/05 12:03:43;;;;;;;6.50;1.83;;;;;;;;;;5081381;28;20048;-73
2023/06/05 12:06:09;;;;;;;6.45;2.00;;;;;;;;;;5079182;28;20753;-78
2023/06/05 12:08:35;;;;;;;5.20;1.45;;;;;;;;;;5083537;28;20032;-78
2023/06/05 12:11:02;;;;;;;7.55;1.58;;;;;;;;;;5079439;28;20486;-78
2023/06/05 12:13:47;;;;;;;4.53;1.50;;;;;;;;;;5087018;28;20941;-74
2023/06/05 12:16:12;;;;;;;5.30;1.60;;;;;;;;;;5086792;28;20035;-72
2023/06/05 12:18:38;;;;;;;3.97;1.70;;;;;;;;;;5085849;28;20028;-75
2023/06/05 12:21:32;;;;;;;4.30;1.50;;;;;;;;;;5101683;28;20069;-74
2023/06/05 12:24:01;;;;;;;4.60;1.40;;;;;;;;;;5083188;28;20493;-79
2023/06/05 12:26:29;;;;;;;7.38;1.65;;;;;;;;;;5089562;28;20033;-77
2023/06/05 12:29:05;;;;;;;3.42;1.40;;;;;;;;;;5090890;28;20465;-75
2023/06/05 12:31:34;;;;;;;5.47;1.50;;;;;;;;;;5089833;28;20062;-70
2023/06/05 12:33:59;;;;;;;8.32;1.50;;;;;;;;;;5092591;28;20052;-74
2023/06/05 12:36:25;;;;;;;7.68;1.80;;;;;;;;;;5093208;28;20346;-73
2023/06/05 12:38:51;;;;;;;4.03;1.50;;;;;;;;;;5090134;28;20359;-73
2023/06/05 12:41:16;;;;;;;5.32;1.52;;;;;;;;;;5090798;28;20016;-75
2023/06/05 12:43:41;;;;;;;2.85;1.40;;;;;;;;;;5091483;28;20017;-72
2023/06/05 12:46:08;;;;;;;5.72;1.67;;;;;;;;;;5091088;28;20031;-74
2023/06/05 12:48:33;;;;;;;3.45;1.60;;;;;;;;;;5092391;28;20024;-76
2023/06/05 12:50:58;;;;;;;4.72;1.50;;;;;;;;;;5090402;28;20103;-76
2023/06/05 12:53:25;;;;;;;6.95;1.65;;;;;;;;;;5090195;28;20019;-74
2023/06/05 12:55:50;;;;;;;3.00;1.40;;;;;;;;;;5084198;28;20083;-73
2023/06/05 12:58:15;;;;;;;4.18;1.52;;;;;;;;;;5085491;28;20047;-74
2023/06/05 13:00:41;;;;;;;3.53;1.30;;;;;;;;;;5093223;28;20021;-73
2023/06/05 13:03:07;;;;;;;6.50;1.50;;;;;;;;;;5090650;28;20016;-74
2023/06/05 13:05:32;;;;;;;5.47;1.63;;;;;;;;;;5091886;28;20042;-72
2023/06/05 13:07:58;;;;;;;4.97;1.50;;;;;;;;;;5081623;28;20374;-73
2023/06/05 13:10:24;;;;;;;5.75;1.30;;;;;;;;;;5086390;28;20032;-75
2023/06/05 13:12:49;;;;;;;3.30;1.15;;;;;;;;;;5083665;28;20024;-73
2023/06/05 13:15:14;;;;;;;4.32;1.40;;;;;;;;;;5079155;28;20032;-73
2023/06/05 13:17:40;;;;;;;4.50;1.48;;;;;;;;;;5083379;28;20028;-73
2023/06/05 13:20:08;;;;;;;6.30;1.60;;;;;;;;;;5079212;28;20016;-73
2023/06/05 13:22:34;;;;;;;3.55;1.38;;;;;;;;;;5084737;28;20509;-72
2023/06/05 13:25:00;;;;;;;5.75;1.48;;;;;;;;;;5085996;28;20020;-73
2023/06/05 13:27:25;;;;;;;3.88;1.50;;;;;;;;;;5086382;28;20616;-74
2023/06/05 13:29:50;;;;;;;2.95;1.40;;;;;;;;;;5088408;28;20044;-77
2023/06/05 13:32:15;;;;;;;6.35;1.60;;;;;;;;;;5087918;28;20028;-73
2023/06/05 13:34:41;;;;;;;3.70;1.40;;;;;;;;;;5085097;28;20050;-72
2023/06/05 13:37:06;;;;;;;6.03;1.77;;;;;;;;;;5090047;28;20039;-73
2023/06/05 13:39:31;;;;;;;7.60;1.50;;;;;;;;;;5090315;28;20020;-73
2023/06/05 13:41:57;;;;;;;4.72;1.60;;;;;;;;;;5079473;28;20119;-72
2023/06/05 13:44:22;;;;;;;4.95;1.50;;;;;;;;;;5086081;28;20027;-71
2023/06/05 13:46:47;;;;;;;5.15;1.90;;;;;;;;;;5083203;28;20032;-73
2023/06/05 13:49:13;;;;;;;5.20;1.95;;;;;;;;;;5082921;28;20016;-72
2023/06/05 13:51:38;;;;;;;4.60;1.65;;;;;;;;;;5091055;28;20044;-72
2023/06/05 13:54:04;;;;;;;6.03;1.60;;;;;;;;;;5079379;28;20028;-73
2023/06/05 13:56:29;;;;;;;5.68;1.60;;;;;;;;;;5082421;28;20107;-73
2023/06/05 13:58:57;;;;;;;7.50;1.95;;;;;;;;;;5091801;28;20027;-73
2023/06/05 14:01:22;;;;;;;5.03;1.50;;;;;;;;;;5094727;28;20523;-71
2023/06/05 14:03:47;;;;;;;6.38;1.70;;;;;;;;;;5090041;28;20036;-69
2023/06/05 14:06:13;;;;;;;5.50;1.60;;;;;;;;;;5089678;28;20020;-72
2023/06/05 14:08:38;;;;;;;7.70;1.95;;;;;;;;;;5079166;28;20023;-73
2023/06/05 14:11:03;;;;;;;5.22;1.77;;;;;;;;;;5095211;28;20024;-74
2023/06/05 14:13:29;;;;;;;4.88;1.90;;;;;;;;;;5093940;28;20074;-72
2023/06/05 14:15:54;;;;;;;4.50;1.50;;;;;;;;;;5093686;28;20016;-73
2023/06/05 14:18:19;;;;;;;3.40;1.38;;;;;;;;;;5092736;28;20505;-72
2023/06/05 14:20:45;;;;;;;4.70;1.50;;;;;;;;;;5085932;28;20021;-72
2023/06/05 14:23:10;;;;;;;4.07;1.50;;;;;;;;;;5086147;28;20474;-70
2023/06/05 14:25:36;;;;;;;8.93;1.60;;;;;;;;;;5087656;28;20058;-71
2023/06/05 14:28:01;;;;;;;4.05;1.52;;;;;;;;;;5090835;28;20031;-70
2023/06/05 14:30:27;;;;;;;3.95;1.60;;;;;;;;;;5094401;28;20026;-72
2023/06/05 14:32:52;;;;;;;9.63;1.98;;;;;;;;;;5092209;28;20043;-73
2023/06/05 14:35:19;;;;;;;4.18;1.50;;;;;;;;;;5090985;28;20027;-73